sensor_id;sensor_type;location;lat;lon;timestamp;pressure;altitude;pressure_sealevel;temperature;humidity
48364;BME280;34170;54.364;18.582;2023-05-22T00:02:12;100891.53;;;14.19;70.38
48364;BME280;34170;54.364;18.582;2023-05-22T00:04:39;100887.28;;;14.17;70.42
48364;BME280;34170;54.364;18.582;2023-05-22T00:07:07;100891.53;;;14.19;70.11
48364;BME280;34170;54.364;18.582;2023-05-22T00:09:34;100886.41;;;14.16;70.72
48364;BME280;34170;54.364;18.582;2023-05-22T00:12:02;100883.16;;;14.13;70.51
48364;BME280;34170;54.364;18.582;2023-05-22T00:14:29;100884.88;;;14.14;70.70
48364;BME280;34170;54.364;18.582;2023-05-22T00:16:57;100879.22;;;14.07;71.03
48364;BME280;34170;54.364;18.582;2023-05-22T00:19:26;100881.09;;;14.06;71.87
48364;BME280;34170;54.364;18.582;2023-05-22T00:21:57;100886.75;;;14.13;71.21
48364;BME280;34170;54.364;18.582;2023-05-22T00:24:24;100882.47;;;14.10;71.10
48364;BME280;34170;54.364;18.582;2023-05-22T00:26:51;100880.63;;;14.11;70.79
48364;BME280;34170;54.364;18.582;2023-05-22T00:29:19;100889.13;;;14.16;70.53
48364;BME280;34170;54.364;18.582;2023-05-22T00:31:46;100882.31;;;14.12;71.43
48364;BME280;34170;54.364;18.582;2023-05-22T00:48:21;100871.34;;;14.14;70.74
48364;BME280;34170;54.364;18.582;2023-05-22T00:50:50;100866.09;;;14.12;71.10
48364;BME280;34170;54.364;18.582;2023-05-22T00:53:23;100868.50;;;14.15;71.43
48364;BME280;34170;54.364;18.582;2023-05-22T00:55:52;100873.03;;;14.15;71.35
48364;BME280;34170;54.364;18.582;2023-05-22T00:58:20;100867.81;;;14.13;71.15
48364;BME280;34170;54.364;18.582;2023-05-22T01:00:51;100878.44;;;14.15;71.16
48364;BME280;34170;54.364;18.582;2023-05-22T01:03:18;100875.00;;;14.22;71.66
48364;BME280;34170;54.364;18.582;2023-05-22T01:05:53;100870.34;;;14.15;71.97
48364;BME280;34170;54.364;18.582;2023-05-22T01:08:20;100865.56;;;14.26;71.15
48364;BME280;34170;54.364;18.582;2023-05-22T01:10:53;100861.53;;;14.30;70.98
48364;BME280;34170;54.364;18.582;2023-05-22T01:13:31;100868.66;;;14.32;71.59
48364;BME280;34170;54.364;18.582;2023-05-22T01:16:31;100869.34;;;14.34;71.38
48364;BME280;34170;54.364;18.582;2023-05-22T01:28:10;100866.03;;;14.40;69.97
48364;BME280;34170;54.364;18.582;2023-05-22T01:33:35;100861.88;;;14.27;71.13
48364;BME280;34170;54.364;18.582;2023-05-22T01:36:08;100864.88;;;14.24;71.34
48364;BME280;34170;54.364;18.582;2023-05-22T01:38:37;100862.75;;;14.18;72.39
48364;BME280;34170;54.364;18.582;2023-05-22T01:41:06;100871.28;;;14.23;71.94
48364;BME280;34170;54.364;18.582;2023-05-22T01:43:34;100855.97;;;14.14;72.26
48364;BME280;34170;54.364;18.582;2023-05-22T01:46:01;100867.47;;;14.16;72.63
48364;BME280;34170;54.364;18.582;2023-05-22T01:48:29;100861.69;;;14.11;73.37
48364;BME280;34170;54.364;18.582;2023-05-22T01:51:02;100866.59;;;14.25;71.90
48364;BME280;34170;54.364;18.582;2023-05-22T01:53:44;100864.47;;;14.19;72.94
48364;BME280;34170;54.364;18.582;2023-05-22T01:56:19;100862.16;;;14.06;73.46
48364;BME280;34170;54.364;18.582;2023-05-22T02:02:01;100860.59;;;14.04;74.13
48364;BME280;34170;54.364;18.582;2023-05-22T02:04:30;100857.59;;;14.07;73.66
48364;BME280;34170;54.364;18.582;2023-05-22T02:06:58;100864.09;;;14.14;73.47
48364;BME280;34170;54.364;18.582;2023-05-22T02:09:29;100866.78;;;14.14;73.53
48364;BME280;34170;54.364;18.582;2023-05-22T02:11:59;100858.97;;;14.11;73.76
48364;BME280;34170;54.364;18.582;2023-05-22T02:14:29;100871.81;;;14.09;74.17
48364;BME280;34170;54.364;18.582;2023-05-22T02:16:56;100861.63;;;14.03;74.51
48364;BME280;34170;54.364;18.582;2023-05-22T02:19:26;100865.31;;;14.02;74.54
48364;BME280;34170;54.364;18.582;2023-05-22T02:21:54;100859.84;;;13.94;74.63
48364;BME280;34170;54.364;18.582;2023-05-22T02:24:22;100860.06;;;14.00;74.31
48364;BME280;34170;54.364;18.582;2023-05-22T02:26:50;100855.53;;;14.01;74.69
48364;BME280;34170;54.364;18.582;2023-05-22T02:29:18;100862.72;;;14.10;74.32
48364;BME280;34170;54.364;18.582;2023-05-22T02:31:45;100859.91;;;14.02;74.57
48364;BME280;34170;54.364;18.582;2023-05-22T02:34:13;100852.59;;;14.12;74.19
48364;BME280;34170;54.364;18.582;2023-05-22T02:36:40;100853.56;;;14.11;74.43
48364;BME280;34170;54.364;18.582;2023-05-22T02:39:08;100852.28;;;14.15;74.56
48364;BME280;34170;54.364;18.582;2023-05-22T02:41:35;100852.50;;;14.22;73.82
48364;BME280;34170;54.364;18.582;2023-05-22T02:44:03;100850.16;;;14.27;73.80
48364;BME280;34170;54.364;18.582;2023-05-22T02:46:31;100848.00;;;14.30;73.12
48364;BME280;34170;54.364;18.582;2023-05-22T02:48:59;100846.38;;;14.38;72.80
48364;BME280;34170;54.364;18.582;2023-05-22T02:51:26;100841.69;;;14.40;72.65
48364;BME280;34170;54.364;18.582;2023-05-22T02:53:54;100842.41;;;14.50;72.87
48364;BME280;34170;54.364;18.582;2023-05-22T02:56:21;100850.16;;;14.45;72.56
48364;BME280;34170;54.364;18.582;2023-05-22T02:58:50;100847.22;;;14.56;72.42
48364;BME280;34170;54.364;18.582;2023-05-22T03:01:17;100849.22;;;14.72;71.51
48364;BME280;34170;54.364;18.582;2023-05-22T03:03:45;100852.50;;;14.84;70.32
48364;BME280;34170;54.364;18.582;2023-05-22T03:06:14;100845.28;;;14.93;70.07
48364;BME280;34170;54.364;18.582;2023-05-22T03:08:42;100850.69;;;15.19;69.18
48364;BME280;34170;54.364;18.582;2023-05-22T03:11:10;100845.28;;;15.27;68.75
48364;BME280;34170;54.364;18.582;2023-05-22T03:13:38;100847.06;;;15.44;68.02
48364;BME280;34170;54.364;18.582;2023-05-22T03:16:05;100843.75;;;15.67;66.03
48364;BME280;34170;54.364;18.582;2023-05-22T03:18:35;100844.50;;;15.86;65.31
48364;BME280;34170;54.364;18.582;2023-05-22T03:21:02;100837.09;;;16.12;63.58
48364;BME280;34170;54.364;18.582;2023-05-22T03:23:30;100839.81;;;16.29;63.26
48364;BME280;34170;54.364;18.582;2023-05-22T03:25:57;100842.19;;;16.40;62.57
48364;BME280;34170;54.364;18.582;2023-05-22T03:28:30;100837.06;;;16.45;61.86
48364;BME280;34170;54.364;18.582;2023-05-22T03:30:57;100834.38;;;16.37;63.83
48364;BME280;34170;54.364;18.582;2023-05-22T03:33:30;100831.63;;;16.70;62.47
48364;BME280;34170;54.364;18.582;2023-05-22T03:35:57;100835.25;;;17.26;59.45
48364;BME280;34170;54.364;18.582;2023-05-22T03:38:25;100837.69;;;17.92;54.70
48364;BME280;34170;54.364;18.582;2023-05-22T03:40:52;100834.94;;;18.76;51.43
48364;BME280;34170;54.364;18.582;2023-05-22T03:43:20;100836.78;;;19.14;49.55
48364;BME280;34170;54.364;18.582;2023-05-22T03:45:49;100840.78;;;18.88;50.56
48364;BME280;34170;54.364;18.582;2023-05-22T03:48:16;100829.25;;;18.25;52.84
48364;BME280;34170;54.364;18.582;2023-05-22T03:50:44;100832.59;;;18.12;53.15
48364;BME280;34170;54.364;18.582;2023-05-22T03:53:11;100836.31;;;18.57;50.86
48364;BME280;34170;54.364;18.582;2023-05-22T03:55:39;100834.81;;;18.55;51.66
48364;BME280;34170;54.364;18.582;2023-05-22T03:58:06;100847.09;;;19.18;49.98
48364;BME280;34170;54.364;18.582;2023-05-22T04:00:34;100836.88;;;19.72;47.35
48364;BME280;34170;54.364;18.582;2023-05-22T04:03:01;100845.06;;;20.30;45.06
48364;BME280;34170;54.364;18.582;2023-05-22T04:05:29;100839.56;;;19.50;46.59
48364;BME280;34170;54.364;18.582;2023-05-22T04:07:58;100842.09;;;19.37;47.53
48364;BME280;34170;54.364;18.582;2023-05-22T04:10:25;100840.59;;;19.49;47.51
48364;BME280;34170;54.364;18.582;2023-05-22T04:12:53;100840.47;;;19.87;47.13
48364;BME280;34170;54.364;18.582;2023-05-22T04:15:20;100829.25;;;19.31;48.16
48364;BME280;34170;54.364;18.582;2023-05-22T04:17:48;100835.84;;;19.21;49.27
48364;BME280;34170;54.364;18.582;2023-05-22T04:20:16;100834.75;;;20.04;46.13
48364;BME280;34170;54.364;18.582;2023-05-22T04:22:44;100824.09;;;20.80;44.45
48364;BME280;34170;54.364;18.582;2023-05-22T04:25:11;100830.84;;;20.84;44.55
48364;BME280;34170;54.364;18.582;2023-05-22T04:27:39;100826.81;;;20.80;44.59
48364;BME280;34170;54.364;18.582;2023-05-22T04:30:07;100835.94;;;20.94;45.46
48364;BME280;34170;54.364;18.582;2023-05-22T04:32:38;100818.34;;;21.03;44.90
48364;BME280;34170;54.364;18.582;2023-05-22T04:35:07;100818.50;;;21.85;42.93
48364;BME280;34170;54.364;18.582;2023-05-22T04:37:40;100823.16;;;21.91;43.58
48364;BME280;34170;54.364;18.582;2023-05-22T04:40:08;100823.59;;;22.08;42.36
48364;BME280;34170;54.364;18.582;2023-05-22T04:42:37;100818.66;;;21.22;43.85
48364;BME280;34170;54.364;18.582;2023-05-22T04:45:05;100827.69;;;21.22;44.19
48364;BME280;34170;54.364;18.582;2023-05-22T04:47:33;100828.44;;;22.06;43.58
48364;BME280;34170;54.364;18.582;2023-05-22T04:50:05;100822.63;;;22.62;42.04
48364;BME280;34170;54.364;18.582;2023-05-22T04:52:34;100815.53;;;21.80;42.71
48364;BME280;34170;54.364;18.582;2023-05-22T04:55:03;100824.72;;;22.34;42.04
48364;BME280;34170;54.364;18.582;2023-05-22T04:57:32;100823.88;;;22.40;42.06
48364;BME280;34170;54.364;18.582;2023-05-22T04:59:59;100823.44;;;22.50;41.10
48364;BME280;34170;54.364;18.582;2023-05-22T05:02:29;100825.78;;;22.46;41.38
48364;BME280;34170;54.364;18.582;2023-05-22T05:04:57;100829.38;;;22.67;41.46
48364;BME280;34170;54.364;18.582;2023-05-22T05:07:25;100825.66;;;21.79;42.75
48364;BME280;34170;54.364;18.582;2023-05-22T05:09:52;100824.22;;;22.03;42.76
48364;BME280;34170;54.364;18.582;2023-05-22T05:12:20;100816.03;;;22.17;41.91
48364;BME280;34170;54.364;18.582;2023-05-22T05:14:48;100830.16;;;23.00;40.48
48364;BME280;34170;54.364;18.582;2023-05-22T05:17:15;100835.41;;;23.74;39.54
48364;BME280;34170;54.364;18.582;2023-05-22T05:19:43;100829.84;;;25.87;36.62
48364;BME280;34170;54.364;18.582;2023-05-22T05:22:11;100835.84;;;27.68;32.11
48364;BME280;34170;54.364;18.582;2023-05-22T05:24:38;100840.91;;;30.34;28.26
48364;BME280;34170;54.364;18.582;2023-05-22T05:27:06;100837.44;;;32.28;25.21
48364;BME280;34170;54.364;18.582;2023-05-22T05:29:34;100833.78;;;32.94;25.18
48364;BME280;34170;54.364;18.582;2023-05-22T05:32:12;100837.19;;;34.16;22.88
48364;BME280;34170;54.364;18.582;2023-05-22T05:34:50;100840.69;;;34.96;23.00
48364;BME280;34170;54.364;18.582;2023-05-22T05:37:41;100846.81;;;35.46;20.90
48364;BME280;34170;54.364;18.582;2023-05-22T05:40:10;100838.38;;;35.76;20.46
48364;BME280;34170;54.364;18.582;2023-05-22T05:42:43;100838.88;;;36.35;20.67
48364;BME280;34170;54.364;18.582;2023-05-22T05:45:12;100846.56;;;34.94;21.17
48364;BME280;34170;54.364;18.582;2023-05-22T05:47:41;100849.63;;;36.60;19.98
48364;BME280;34170;54.364;18.582;2023-05-22T05:50:09;100842.09;;;37.22;19.44
48364;BME280;34170;54.364;18.582;2023-05-22T05:52:39;100842.91;;;38.59;18.52
48364;BME280;34170;54.364;18.582;2023-05-22T05:55:11;100836.38;;;38.73;17.97
48364;BME280;34170;54.364;18.582;2023-05-22T05:57:40;100840.63;;;37.38;18.70
48364;BME280;34170;54.364;18.582;2023-05-22T06:00:12;100842.31;;;38.71;17.71
48364;BME280;34170;54.364;18.582;2023-05-22T06:02:41;100841.91;;;40.01;17.10
48364;BME280;34170;54.364;18.582;2023-05-22T06:05:23;100838.84;;;40.76;16.37
48364;BME280;34170;54.364;18.582;2023-05-22T06:07:59;100839.06;;;40.28;16.33
48364;BME280;34170;54.364;18.582;2023-05-22T06:10:26;100833.22;;;38.74;17.29
48364;BME280;34170;54.364;18.582;2023-05-22T06:12:59;100833.84;;;39.34;16.75
48364;BME280;34170;54.364;18.582;2023-05-22T06:15:26;100830.78;;;39.88;15.20
48364;BME280;34170;54.364;18.582;2023-05-22T06:17:55;100829.19;;;39.38;15.88
48364;BME280;34170;54.364;18.582;2023-05-22T06:20:22;100826.09;;;36.61;16.99
48364;BME280;34170;54.364;18.582;2023-05-22T06:22:51;100823.13;;;35.20;18.27
48364;BME280;34170;54.364;18.582;2023-05-22T06:25:18;100834.72;;;39.12;16.35
48364;BME280;34170;54.364;18.582;2023-05-22T06:27:48;100826.28;;;39.52;15.63
48364;BME280;34170;54.364;18.582;2023-05-22T06:30:16;100823.72;;;36.36;17.90
48364;BME280;34170;54.364;18.582;2023-05-22T06:32:59;100818.06;;;36.41;18.04
48364;BME280;34170;54.364;18.582;2023-05-22T06:35:26;100826.66;;;40.46;14.68
48364;BME280;34170;54.364;18.582;2023-05-22T06:37:54;100833.63;;;42.27;13.44
48364;BME280;34170;54.364;18.582;2023-05-22T06:40:21;100828.34;;;43.83;12.91
48364;BME280;34170;54.364;18.582;2023-05-22T06:42:51;100829.09;;;42.14;13.16
48364;BME280;34170;54.364;18.582;2023-05-22T06:45:43;100819.25;;;39.23;15.23
48364;BME280;34170;54.364;18.582;2023-05-22T06:48:20;100813.56;;;37.84;16.30
48364;BME280;34170;54.364;18.582;2023-05-22T06:51:03;100817.88;;;36.51;17.35
48364;BME280;34170;54.364;18.582;2023-05-22T06:53:31;100809.47;;;34.89;19.00
48364;BME280;34170;54.364;18.582;2023-05-22T06:55:58;100807.97;;;32.27;21.45
48364;BME280;34170;54.364;18.582;2023-05-22T06:58:45;100818.53;;;37.23;16.95
48364;BME280;34170;54.364;18.582;2023-05-22T07:01:12;100814.16;;;37.03;16.83
48364;BME280;34170;54.364;18.582;2023-05-22T07:03:48;100808.19;;;37.73;16.39
48364;BME280;34170;54.364;18.582;2023-05-22T07:06:45;100791.81;;;37.39;16.79
48364;BME280;34170;54.364;18.582;2023-05-22T07:09:14;100803.47;;;40.96;14.00
48364;BME280;34170;54.364;18.582;2023-05-22T07:11:42;100805.84;;;41.45;13.86
48364;BME280;34170;54.364;18.582;2023-05-22T07:14:11;100812.63;;;43.20;12.63
48364;BME280;34170;54.364;18.582;2023-05-22T07:16:40;100805.09;;;41.36;13.85
48364;BME280;34170;54.364;18.582;2023-05-22T07:19:09;100800.28;;;39.46;15.00
48364;BME280;34170;54.364;18.582;2023-05-22T07:21:38;100813.19;;;40.61;13.92
48364;BME280;34170;54.364;18.582;2023-05-22T07:24:07;100802.06;;;42.25;12.62
48364;BME280;34170;54.364;18.582;2023-05-22T07:26:40;100807.25;;;44.37;11.79
48364;BME280;34170;54.364;18.582;2023-05-22T07:29:13;100808.66;;;43.74;11.34
48364;BME280;34170;54.364;18.582;2023-05-22T07:31:42;100795.25;;;38.54;15.94
48364;BME280;34170;54.364;18.582;2023-05-22T07:34:10;100807.31;;;41.94;12.76
48364;BME280;34170;54.364;18.582;2023-05-22T07:36:38;100799.59;;;37.14;16.46
48364;BME280;34170;54.364;18.582;2023-05-22T07:39:07;100794.94;;;38.33;14.84
48364;BME280;34170;54.364;18.582;2023-05-22T07:41:39;100791.31;;;37.23;15.72
48364;BME280;34170;54.364;18.582;2023-05-22T07:44:10;100789.19;;;36.26;17.28
48364;BME280;34170;54.364;18.582;2023-05-22T07:46:37;100789.19;;;36.26;17.28
48364;BME280;34170;54.364;18.582;2023-05-22T07:49:11;100779.81;;;31.82;20.08
48364;BME280;34170;54.364;18.582;2023-05-22T07:51:41;100783.97;;;35.63;17.03
48364;BME280;34170;54.364;18.582;2023-05-22T07:54:09;100781.72;;;36.03;16.99
48364;BME280;34170;54.364;18.582;2023-05-22T07:56:40;100763.59;;;30.90;21.42
48364;BME280;34170;54.364;18.582;2023-05-22T07:59:08;100779.84;;;33.50;19.31
48364;BME280;34170;54.364;18.582;2023-05-22T08:01:39;100774.84;;;32.30;21.18
48364;BME280;34170;54.364;18.582;2023-05-22T08:04:08;100775.72;;;34.85;19.01
48364;BME280;34170;54.364;18.582;2023-05-22T08:06:36;100774.31;;;35.93;17.89
48364;BME280;34170;54.364;18.582;2023-05-22T08:09:03;100762.56;;;30.21;22.82
48364;BME280;34170;54.364;18.582;2023-05-22T08:11:31;100762.75;;;30.90;21.68
48364;BME280;34170;54.364;18.582;2023-05-22T08:14:00;100779.09;;;34.53;18.66
48364;BME280;34170;54.364;18.582;2023-05-22T08:16:27;100767.56;;;31.05;22.25
48364;BME280;34170;54.364;18.582;2023-05-22T08:18:57;100773.91;;;33.62;18.16
48364;BME280;34170;54.364;18.582;2023-05-22T08:21:24;100771.53;;;31.19;20.29
48364;BME280;34170;54.364;18.582;2023-05-22T08:23:52;100767.59;;;29.43;23.46
48364;BME280;34170;54.364;18.582;2023-05-22T08:26:19;100780.94;;;32.58;20.83
48364;BME280;34170;54.364;18.582;2023-05-22T08:28:47;100769.72;;;30.92;19.41
48364;BME280;34170;54.364;18.582;2023-05-22T08:31:14;100773.72;;;29.23;21.38
48364;BME280;34170;54.364;18.582;2023-05-22T08:33:41;100766.66;;;30.46;19.69
48364;BME280;34170;54.364;18.582;2023-05-22T08:36:09;100765.44;;;31.27;21.21
48364;BME280;34170;54.364;18.582;2023-05-22T08:38:36;100765.84;;;29.86;23.05
48364;BME280;34170;54.364;18.582;2023-05-22T08:41:05;100764.44;;;29.61;23.83
48364;BME280;34170;54.364;18.582;2023-05-22T08:43:34;100770.34;;;31.05;22.23
48364;BME280;34170;54.364;18.582;2023-05-22T08:46:05;100763.50;;;30.75;22.04
48364;BME280;34170;54.364;18.582;2023-05-22T08:48:36;100761.56;;;30.75;23.05
48364;BME280;34170;54.364;18.582;2023-05-22T08:51:04;100767.00;;;31.86;22.47
48364;BME280;34170;54.364;18.582;2023-05-22T08:53:36;100768.78;;;30.71;23.79
48364;BME280;34170;54.364;18.582;2023-05-22T08:56:06;100769.91;;;28.90;26.18
48364;BME280;34170;54.364;18.582;2023-05-22T08:58:36;100766.50;;;29.22;25.39
48364;BME280;34170;54.364;18.582;2023-05-22T09:01:04;100764.13;;;28.36;26.31
48364;BME280;34170;54.364;18.582;2023-05-22T09:03:34;100765.28;;;28.40;25.55
48364;BME280;34170;54.364;18.582;2023-05-22T09:06:03;100762.47;;;29.13;24.23
48364;BME280;34170;54.364;18.582;2023-05-22T09:08:30;100750.91;;;28.55;26.46
48364;BME280;34170;54.364;18.582;2023-05-22T09:10:58;100756.28;;;30.74;24.02
48364;BME280;34170;54.364;18.582;2023-05-22T09:13:28;100753.56;;;30.84;23.83
48364;BME280;34170;54.364;18.582;2023-05-22T09:16:09;100746.69;;;31.65;23.09
48364;BME280;34170;54.364;18.582;2023-05-22T09:18:38;100738.84;;;30.03;24.60
48364;BME280;34170;54.364;18.582;2023-05-22T09:21:06;100747.81;;;29.61;24.86
48364;BME280;34170;54.364;18.582;2023-05-22T09:23:58;100757.16;;;29.77;24.65
48364;BME280;34170;54.364;18.582;2023-05-22T09:26:29;100739.53;;;28.95;23.46
48364;BME280;34170;54.364;18.582;2023-05-22T09:28:58;100743.47;;;29.93;25.20
48364;BME280;34170;54.364;18.582;2023-05-22T09:31:27;100755.56;;;28.71;25.81
48364;BME280;34170;54.364;18.582;2023-05-22T09:33:55;100740.84;;;29.09;25.64
48364;BME280;34170;54.364;18.582;2023-05-22T09:36:32;100736.59;;;29.73;23.78
48364;BME280;34170;54.364;18.582;2023-05-22T09:39:02;100748.00;;;28.83;24.09
48364;BME280;34170;54.364;18.582;2023-05-22T09:41:34;100738.81;;;28.27;27.28
48364;BME280;34170;54.364;18.582;2023-05-22T09:44:11;100739.81;;;29.65;26.90
48364;BME280;34170;54.364;18.582;2023-05-22T09:46:45;100739.88;;;29.97;26.09
48364;BME280;34170;54.364;18.582;2023-05-22T09:49:14;100745.31;;;32.60;23.79
48364;BME280;34170;54.364;18.582;2023-05-22T09:51:44;100750.06;;;31.93;23.83
48364;BME280;34170;54.364;18.582;2023-05-22T09:54:15;100737.25;;;31.66;24.85
48364;BME280;34170;54.364;18.582;2023-05-22T09:56:47;100741.25;;;31.23;24.86
48364;BME280;34170;54.364;18.582;2023-05-22T09:59:20;100730.56;;;31.72;23.81
48364;BME280;34170;54.364;18.582;2023-05-22T10:01:49;100726.03;;;32.95;23.53
48364;BME280;34170;54.364;18.582;2023-05-22T10:04:17;100722.03;;;31.06;24.24
48364;BME280;34170;54.364;18.582;2023-05-22T10:06:50;100719.50;;;30.46;25.55
48364;BME280;34170;54.364;18.582;2023-05-22T10:09:22;100711.69;;;30.43;25.87
48364;BME280;34170;54.364;18.582;2023-05-22T10:11:52;100721.56;;;31.29;24.15
48364;BME280;34170;54.364;18.582;2023-05-22T10:14:22;100712.63;;;29.13;26.79
48364;BME280;34170;54.364;18.582;2023-05-22T10:16:51;100720.31;;;28.83;28.73
48364;BME280;34170;54.364;18.582;2023-05-22T10:19:20;100716.66;;;29.22;27.35
48364;BME280;34170;54.364;18.582;2023-05-22T10:21:55;100713.53;;;29.95;27.23
48364;BME280;34170;54.364;18.582;2023-05-22T10:24:24;100718.19;;;30.59;26.36
48364;BME280;34170;54.364;18.582;2023-05-22T10:26:52;100707.69;;;28.93;28.09
48364;BME280;34170;54.364;18.582;2023-05-22T10:29:24;100716.50;;;29.61;27.30
48364;BME280;34170;54.364;18.582;2023-05-22T10:32:20;100705.53;;;28.78;27.59
48364;BME280;34170;54.364;18.582;2023-05-22T10:40:07;100709.28;;;29.60;28.32
48364;BME280;34170;54.364;18.582;2023-05-22T10:42:38;100710.66;;;29.30;28.26
48364;BME280;34170;54.364;18.582;2023-05-22T10:45:06;100703.41;;;29.78;27.42
48364;BME280;34170;54.364;18.582;2023-05-22T10:47:34;100693.44;;;27.60;31.13
48364;BME280;34170;54.364;18.582;2023-05-22T10:50:10;100703.47;;;27.95;30.85
48364;BME280;34170;54.364;18.582;2023-05-22T10:52:38;100692.66;;;27.48;31.08
48364;BME280;34170;54.364;18.582;2023-05-22T10:55:08;100694.50;;;27.01;30.75
48364;BME280;34170;54.364;18.582;2023-05-22T10:57:36;100702.13;;;26.71;30.48
48364;BME280;34170;54.364;18.582;2023-05-22T11:00:14;100691.09;;;25.09;35.18
48364;BME280;34170;54.364;18.582;2023-05-22T11:02:45;100682.44;;;23.88;37.33
48364;BME280;34170;54.364;18.582;2023-05-22T11:07:48;100682.13;;;23.96;37.90
48364;BME280;34170;54.364;18.582;2023-05-22T11:10:25;100669.09;;;22.69;37.76
48364;BME280;34170;54.364;18.582;2023-05-22T11:13:10;100672.72;;;22.63;38.36
48364;BME280;34170;54.364;18.582;2023-05-22T11:15:43;100678.03;;;22.24;39.71
48364;BME280;34170;54.364;18.582;2023-05-22T11:18:11;100670.66;;;22.25;38.99
48364;BME280;34170;54.364;18.582;2023-05-22T11:20:40;100674.47;;;22.11;40.03
48364;BME280;34170;54.364;18.582;2023-05-22T11:23:09;100675.09;;;21.99;41.01
48364;BME280;34170;54.364;18.582;2023-05-22T11:25:39;100669.59;;;22.46;39.27
48364;BME280;34170;54.364;18.582;2023-05-22T11:28:07;100671.28;;;22.47;37.96
48364;BME280;34170;54.364;18.582;2023-05-22T11:30:37;100665.72;;;22.74;37.35
48364;BME280;34170;54.364;18.582;2023-05-22T11:33:05;100667.34;;;23.33;37.33
48364;BME280;34170;54.364;18.582;2023-05-22T11:35:33;100655.91;;;22.98;35.10
48364;BME280;34170;54.364;18.582;2023-05-22T11:38:03;100658.34;;;23.19;36.14
48364;BME280;34170;54.364;18.582;2023-05-22T11:40:32;100670.25;;;22.08;35.01
48364;BME280;34170;54.364;18.582;2023-05-22T11:42:59;100662.44;;;22.18;34.33
48364;BME280;34170;54.364;18.582;2023-05-22T11:45:27;100645.56;;;21.41;36.51
48364;BME280;34170;54.364;18.582;2023-05-22T11:47:54;100653.72;;;21.28;36.49
48364;BME280;34170;54.364;18.582;2023-05-22T11:50:22;100653.50;;;21.23;37.10
48364;BME280;34170;54.364;18.582;2023-05-22T11:53:07;100659.84;;;21.37;37.36
48364;BME280;34170;54.364;18.582;2023-05-22T11:55:34;100658.88;;;21.71;35.44
48364;BME280;34170;54.364;18.582;2023-05-22T11:58:02;100652.78;;;21.56;34.97
48364;BME280;34170;54.364;18.582;2023-05-22T12:00:30;100655.22;;;21.37;35.18
48364;BME280;34170;54.364;18.582;2023-05-22T12:02:58;100643.09;;;21.66;34.73
48364;BME280;34170;54.364;18.582;2023-05-22T12:05:26;100653.94;;;21.20;33.46
48364;BME280;34170;54.364;18.582;2023-05-22T12:07:53;100641.69;;;21.02;36.02
48364;BME280;34170;54.364;18.582;2023-05-22T12:10:21;100643.94;;;20.92;34.74
48364;BME280;34170;54.364;18.582;2023-05-22T12:12:48;100642.91;;;20.93;35.66
48364;BME280;34170;54.364;18.582;2023-05-22T12:15:19;100648.88;;;21.17;35.01
48364;BME280;34170;54.364;18.582;2023-05-22T12:17:47;100645.56;;;21.41;34.28
48364;BME280;34170;54.364;18.582;2023-05-22T12:20:15;100636.44;;;21.07;34.63
48364;BME280;34170;54.364;18.582;2023-05-22T12:22:42;100630.78;;;21.09;33.45
48364;BME280;34170;54.364;18.582;2023-05-22T12:25:16;100635.84;;;21.19;33.13
48364;BME280;34170;54.364;18.582;2023-05-22T12:27:44;100635.19;;;21.17;33.65
48364;BME280;34170;54.364;18.582;2023-05-22T12:30:12;100630.97;;;21.07;33.42
48364;BME280;34170;54.364;18.582;2023-05-22T12:32:46;100620.63;;;20.96;34.43
48364;BME280;34170;54.364;18.582;2023-05-22T12:35:15;100639.28;;;21.47;33.17
48364;BME280;34170;54.364;18.582;2023-05-22T12:37:50;100640.97;;;21.48;32.76
48364;BME280;34170;54.364;18.582;2023-05-22T12:40:18;100622.91;;;21.61;33.55
48364;BME280;34170;54.364;18.582;2023-05-22T12:42:47;100619.09;;;21.48;32.35
48364;BME280;34170;54.364;18.582;2023-05-22T12:45:14;100629.00;;;21.63;32.69
48364;BME280;34170;54.364;18.582;2023-05-22T12:47:44;100619.94;;;21.49;33.42
48364;BME280;34170;54.364;18.582;2023-05-22T12:50:12;100624.13;;;21.78;33.92
48364;BME280;34170;54.364;18.582;2023-05-22T12:52:39;100624.34;;;21.90;33.91
48364;BME280;34170;54.364;18.582;2023-05-22T12:55:10;100627.09;;;21.83;34.52
48364;BME280;34170;54.364;18.582;2023-05-22T12:57:37;100627.22;;;21.22;35.98
48364;BME280;34170;54.364;18.582;2023-05-22T13:00:05;100615.69;;;21.40;36.22
48364;BME280;34170;54.364;18.582;2023-05-22T13:02:33;100614.03;;;21.99;35.34
48364;BME280;34170;54.364;18.582;2023-05-22T13:05:01;100621.16;;;22.13;35.23
48364;BME280;34170;54.364;18.582;2023-05-22T13:07:28;100621.41;;;21.78;34.97
48364;BME280;34170;54.364;18.582;2023-05-22T13:09:56;100609.63;;;21.58;35.76
48364;BME280;34170;54.364;18.582;2023-05-22T13:12:23;100602.66;;;21.55;35.56
48364;BME280;34170;54.364;18.582;2023-05-22T13:14:51;100608.09;;;21.35;35.52
48364;BME280;34170;54.364;18.582;2023-05-22T13:17:18;100611.88;;;21.41;35.64
48364;BME280;34170;54.364;18.582;2023-05-22T13:19:45;100601.81;;;21.55;36.16
48364;BME280;34170;54.364;18.582;2023-05-22T13:22:13;100606.84;;;21.98;34.77
48364;BME280;34170;54.364;18.582;2023-05-22T13:24:41;100610.25;;;21.86;34.69
48364;BME280;34170;54.364;18.582;2023-05-22T13:27:09;100595.53;;;21.61;34.68
48364;BME280;34170;54.364;18.582;2023-05-22T13:29:36;100596.34;;;21.75;35.13
48364;BME280;34170;54.364;18.582;2023-05-22T13:32:04;100590.25;;;21.73;34.76